Time;durP1;ratioP1;P1;durP2;ratioP2;P2;SDS_P1;SDS_P2;PMS_P1;PMS_P2;Temp;Humidity;BMP_temperature;BMP_pressure;BME280_temperature;BME280_humidity;BME280_pressure;Samples;Min_cycle;Max_cycle;Signal;HPM_P1;HPM_P2
2021/12/07 00:00:26;;;;;;;8.18;2.92;;;9.90;77.30;;;;;;4993169;28;20585;-93
2021/12/07 00:02:52;;;;;;;8.07;3.20;;;9.90;77.20;;;;;;4979788;28;20090;-91
2021/12/07 00:05:18;;;;;;;9.55;3.30;;;9.90;77.20;;;;;;4994008;28;20034;-93
2021/12/07 00:07:44;;;;;;;10.68;3.10;;;9.80;77.10;;;;;;5005760;28;20112;-92
2021/12/07 00:10:12;;;;;;;8.45;3.15;;;9.80;77.10;;;;;;4990265;28;20471;-93
2021/12/07 00:12:41;;;;;;;8.32;3.15;;;10.20;77.30;;;;;;4965536;28;20046;-91
2021/12/07 00:15:10;;;;;;;11.82;3.55;;;9.80;77.00;;;;;;4997870;28;20492;-92
2021/12/07 00:17:36;;;;;;;6.95;2.35;;;9.80;77.00;;;;;;4987975;28;20034;-89
2021/12/07 00:20:09;;;;;;;13.93;2.97;;;9.90;77.00;;;;;;4994332;28;20126;-91
2021/12/07 00:22:35;;;;;;;11.07;2.72;;;9.80;76.80;;;;;;4971027;28;20115;-90
2021/12/07 00:25:01;;;;;;;13.30;3.08;;;9.70;76.80;;;;;;4970396;28;20049;-92
2021/12/07 00:27:27;;;;;;;12.52;3.35;;;9.70;76.70;;;;;;4998101;28;20809;-92
2021/12/07 00:29:53;;;;;;;20.30;4.32;;;9.70;76.60;;;;;;5001924;28;20029;-89
2021/12/07 00:32:26;;;;;;;14.55;4.00;;;9.60;76.60;;;;;;5001749;28;20110;-89
2021/12/07 00:37:28;;;;;;;15.15;3.78;;;10.00;76.60;;;;;;5006276;28;20038;-89
2021/12/07 00:39:54;;;;;;;16.15;4.53;;;9.60;76.30;;;;;;5003338;28;20032;-88
2021/12/07 00:42:21;;;;;;;22.65;6.90;;;9.70;76.40;;;;;;4977269;28;20158;-89
2021/12/07 00:44:48;;;;;;;17.65;6.35;;;9.60;76.20;;;;;;4989587;28;20558;-92
2021/12/07 00:47:14;;;;;;;21.05;6.65;;;10.10;77.00;;;;;;4991735;28;20139;-91
2021/12/07 00:49:40;;;;;;;16.33;4.63;;;9.60;76.10;;;;;;4982689;28;20053;-92
2021/12/07 00:52:06;;;;;;;15.82;4.30;;;9.60;76.10;;;;;;5002509;28;20514;-90
2021/12/07 00:54:32;;;;;;;14.98;4.70;;;9.60;76.00;;;;;;4985341;28;20069;-92
2021/12/07 00:56:58;;;;;;;11.90;4.05;;;9.90;76.70;;;;;;4974731;28;20030;-92
2021/12/07 00:59:25;;;;;;;10.55;3.55;;;9.60;75.90;;;;;;4983518;28;20088;-90
2021/12/07 01:01:51;;;;;;;9.38;3.35;;;9.60;75.90;;;;;;4973531;28;20041;-88
2021/12/07 01:04:17;;;;;;;8.70;3.42;;;9.50;75.80;;;;;;4985286;28;20030;-91
2021/12/07 01:07:06;;;;;;;6.72;3.08;;;9.50;75.80;;;;;;4997135;28;20395;-91
2021/12/07 01:25:54;;;;;;;4.37;0.90;;;9.60;75.80;;;;;;4999931;28;20398;-90
2021/12/07 01:30:56;;;;;;;5.13;1.20;;;9.60;75.70;;;;;;5015522;28;20660;-91
2021/12/07 01:36:39;;;;;;;6.45;0.85;;;9.60;75.70;;;;;;4995072;28;20044;-91
2021/12/07 01:46:58;;;;;;;4.60;1.30;;;9.70;75.60;;;;;;4993119;28;20057;-92
2021/12/07 01:52:36;;;;;;;6.93;1.10;;;9.90;75.60;;;;;;5011692;28;20029;-88
2021/12/07 01:58:06;;;;;;;9.27;1.40;;;9.80;75.70;;;;;;4994679;28;20052;-90
2021/12/07 02:00:40;;;;;;;6.07;1.00;;;9.70;75.60;;;;;;4992992;28;20037;-90
2021/12/07 02:03:06;;;;;;;10.45;1.55;;;9.70;75.50;;;;;;4974037;28;20037;-91
2021/12/07 02:05:32;;;;;;;3.83;1.08;;;9.50;75.50;;;;;;4996035;28;20026;-90
2021/12/07 02:07:58;;;;;;;7.18;1.55;;;9.90;75.80;;;;;;4969692;28;20057;-93
2021/12/07 02:10:27;;;;;;;13.23;1.60;;;9.90;75.80;;;;;;4979357;28;20119;-91
2021/12/07 02:13:01;;;;;;;7.63;1.73;;;9.60;75.60;;;;;;4992311;28;20493;-91
2021/12/07 02:15:28;;;;;;;4.32;0.77;;;9.60;75.50;;;;;;4989477;28;20025;-90
2021/12/07 02:17:54;;;;;;;4.95;1.77;;;10.10;76.40;;;;;;4990616;28;20030;-91
2021/12/07 02:20:25;;;;;;;6.50;1.70;;;9.60;75.60;;;;;;4974074;28;20103;-91
2021/12/07 02:22:51;;;;;;;7.35;1.50;;;9.60;75.50;;;;;;4977084;28;20033;-93
2021/12/07 02:25:17;;;;;;;9.27;1.40;;;9.60;75.60;;;;;;4981524;28;20097;-88
2021/12/07 02:27:45;;;;;;;7.22;1.50;;;9.60;75.60;;;;;;4989557;28;20509;-92
2021/12/07 02:30:17;;;;;;;7.75;1.63;;;9.90;75.80;;;;;;4994164;28;20064;-92
2021/12/07 02:32:43;;;;;;;7.32;1.30;;;10.00;76.30;;;;;;4986520;28;20038;-91
2021/12/07 02:35:11;;;;;;;4.95;1.60;;;9.80;75.70;;;;;;4995291;28;20108;-92
2021/12/07 02:37:37;;;;;;;6.03;1.27;;;9.60;75.60;;;;;;4974593;28;20107;-91
2021/12/07 02:40:06;;;;;;;6.95;1.33;;;9.60;75.60;;;;;;5004793;28;20038;-89
2021/12/07 02:42:32;;;;;;;7.18;1.63;;;9.60;75.60;;;;;;4977443;28;20029;-89
2021/12/07 02:44:57;;;;;;;8.15;1.42;;;10.00;75.90;;;;;;5008328;28;20044;-91
2021/12/07 02:47:23;;;;;;;8.13;1.42;;;9.60;75.60;;;;;;4976918;28;20036;-92
2021/12/07 02:49:49;;;;;;;6.75;1.55;;;9.60;75.60;;;;;;4990492;28;20740;-88
2021/12/07 02:52:16;;;;;;;3.90;1.20;;;9.60;75.60;;;;;;4987459;28;20057;-92
2021/12/07 02:54:44;;;;;;;5.53;1.65;;;9.60;75.60;;;;;;4986938;28;20526;-91
2021/12/07 02:57:12;;;;;;;9.77;1.90;;;9.70;75.60;;;;;;4995917;28;20030;-91
2021/12/07 02:59:50;;;;;;;6.10;1.33;;;9.80;76.20;;;;;;4991547;28;20045;-91
2021/12/07 03:02:18;;;;;;;7.25;1.63;;;9.60;75.60;;;;;;5004752;28;20507;-92
2021/12/07 03:04:59;;;;;;;9.52;1.67;;;9.60;75.60;;;;;;4975741;28;20050;-91
2021/12/07 03:26:35;;;;;;;31.40;7.68;;;9.60;75.40;;;;;;5002368;28;20041;-92
2021/12/07 03:29:02;;;;;;;16.15;4.40;;;9.70;75.40;;;;;;4981645;28;20038;-93
2021/12/07 03:31:29;;;;;;;120.53;31.35;;;9.70;75.50;;;;;;5004775;28;20103;-92
2021/12/07 03:33:58;;;;;;;63.53;21.02;;;9.70;75.90;;;;;;4997248;28;20072;-91
2021/12/07 03:36:25;;;;;;;36.22;11.75;;;9.70;75.30;;;;;;4989714;28;20044;-92
2021/12/07 03:38:52;;;;;;;27.23;9.45;;;9.70;75.30;;;;;;4983307;28;20140;-93
2021/12/07 03:41:19;;;;;;;26.25;7.50;;;9.60;75.30;;;;;;4969165;28;20029;-89
2021/12/07 03:43:45;;;;;;;27.77;8.88;;;9.60;75.30;;;;;;4968520;28;20574;-92
2021/12/07 03:46:13;;;;;;;31.40;10.93;;;9.60;75.20;;;;;;4995560;28;20072;-93
2021/12/07 03:48:40;;;;;;;30.95;10.80;;;9.80;75.30;;;;;;4983703;28;20087;-92
2021/12/07 03:51:07;;;;;;;22.48;9.05;;;9.60;75.20;;;;;;4988817;28;20111;-92
2021/12/07 03:53:33;;;;;;;38.08;14.82;;;9.60;75.10;;;;;;4997776;28;20049;-88
2021/12/07 03:56:00;;;;;;;12.60;5.03;;;9.60;75.10;;;;;;4994170;28;20511;-93
2021/12/07 03:58:26;;;;;;;30.48;12.82;;;9.60;75.10;;;;;;4967094;28;20030;-93
2021/12/07 04:00:52;;;;;;;21.48;9.85;;;9.60;75.20;;;;;;4964068;28;20445;-92
2021/12/07 04:03:19;;;;;;;13.20;6.28;;;9.60;75.10;;;;;;4984470;28;20037;-91
2021/12/07 04:05:50;;;;;;;11.40;4.50;;;9.60;75.10;;;;;;4989593;28;20470;-92
2021/12/07 04:08:22;;;;;;;13.48;4.72;;;9.60;75.10;;;;;;4969904;28;20038;-90
2021/12/07 04:10:49;;;;;;;15.52;6.57;;;9.60;75.10;;;;;;4982520;28;20394;-93
2021/12/07 04:13:15;;;;;;;11.50;4.80;;;10.00;75.30;;;;;;4999946;28;20040;-93
2021/12/07 04:15:41;;;;;;;8.68;3.40;;;9.60;75.10;;;;;;4988039;28;20034;-89
2021/12/07 04:18:08;;;;;;;9.13;3.08;;;9.60;75.00;;;;;;4969438;28;20038;-90
2021/12/07 04:20:34;;;;;;;18.75;7.82;;;9.60;75.00;;;;;;4970085;28;20045;-88
2021/12/07 04:23:00;;;;;;;10.80;3.67;;;9.60;75.00;;;;;;5001711;28;20038;-92
2021/12/07 04:25:26;;;;;;;18.85;6.00;;;9.70;75.10;;;;;;4970580;28;20065;-92
2021/12/07 04:27:53;;;;;;;11.05;3.88;;;9.60;75.00;;;;;;5002792;28;20442;-93
2021/12/07 04:30:24;;;;;;;10.93;4.13;;;9.80;75.00;;;;;;4972489;28;20087;-93
2021/12/07 04:32:53;;;;;;;11.02;4.65;;;9.60;74.90;;;;;;5014440;28;20132;-90
2021/12/07 04:35:20;;;;;;;9.50;3.78;;;9.50;74.80;;;;;;4984492;28;20381;-90
2021/12/07 04:37:46;;;;;;;8.95;2.60;;;9.50;74.70;;;;;;4992391;28;20058;-92
2021/12/07 04:40:17;;;;;;;19.00;4.50;;;9.50;74.70;;;;;;4992733;28;20053;-92
2021/12/07 04:42:44;;;;;;;9.20;2.85;;;9.90;74.90;;;;;;4969827;28;20077;-88
2021/12/07 04:45:20;;;;;;;14.38;4.03;;;9.50;74.70;;;;;;4993261;28;20109;-93
2021/12/07 04:48:03;;;;;;;14.80;3.33;;;9.60;74.80;;;;;;4981533;28;20034;-91
2021/12/07 04:58:24;;;;;;;15.87;2.60;;;9.50;74.70;;;;;;4998480;28;20048;-91
2021/12/07 05:00:50;;;;;;;15.23;5.20;;;9.40;74.70;;;;;;5005348;28;20128;-91
2021/12/07 05:03:16;;;;;;;13.95;4.57;;;9.90;75.10;;;;;;4989754;28;20088;-91
2021/12/07 05:05:47;;;;;;;12.20;3.28;;;9.50;74.90;;;;;;4975846;28;20049;-92
2021/12/07 05:08:17;;;;;;;8.88;3.08;;;9.70;75.00;;;;;;5010664;28;20061;-91
2021/12/07 05:39:48;;;;;;;12.20;3.60;;;9.40;75.20;;;;;;5009806;28;20102;-94
2021/12/07 05:42:14;;;;;;;9.30;3.05;;;9.40;75.40;;;;;;4993389;28;20026;-95
2021/12/07 05:44:40;;;;;;;9.32;3.13;;;9.30;75.40;;;;;;4991212;28;20522;-95
2021/12/07 05:47:07;;;;;;;9.95;2.92;;;9.30;75.50;;;;;;4991525;28;20022;-95
2021/12/07 05:49:34;;;;;;;7.63;2.00;;;9.30;75.40;;;;;;4991038;28;20053;-94
2021/12/07 05:52:01;;;;;;;9.80;2.72;;;9.30;75.50;;;;;;4991068;28;20029;-91
2021/12/07 05:54:26;;;;;;;17.73;7.10;;;9.30;75.60;;;;;;4993279;28;20503;-95
2021/12/07 05:56:52;;;;;;;6.10;3.75;;;9.30;75.60;;;;;;4974891;28;20046;-95
2021/12/07 05:59:18;;;;;;;24.58;9.02;;;9.30;75.70;;;;;;4992209;28;20049;-93
2021/12/07 06:01:44;;;;;;;17.02;5.65;;;9.30;75.70;;;;;;4988872;28;20029;-91
2021/12/07 06:04:10;;;;;;;12.68;4.57;;;9.30;75.80;;;;;;4998773;28;20110;-93
2021/12/07 06:06:35;;;;;;;17.00;6.75;;;9.30;75.80;;;;;;5001201;28;20021;-88
2021/12/07 06:09:03;;;;;;;10.35;4.53;;;9.30;75.80;;;;;;4992125;28;20462;-91
2021/12/07 06:11:28;;;;;;;11.85;4.72;;;9.30;75.80;;;;;;4973747;28;20414;-92
2021/12/07 06:13:54;;;;;;;12.82;5.00;;;9.30;75.90;;;;;;5007176;28;20041;-92
2021/12/07 06:16:20;;;;;;;7.38;3.80;;;9.30;75.90;;;;;;5008568;28;20021;-89
2021/12/07 06:18:46;;;;;;;6.43;3.22;;;9.30;75.90;;;;;;4990492;28;20029;-91
2021/12/07 06:21:13;;;;;;;10.65;3.08;;;9.30;75.90;;;;;;4976044;28;20038;-92
2021/12/07 06:23:40;;;;;;;44.20;10.23;;;9.30;76.00;;;;;;4984874;28;20037;-93
2021/12/07 06:26:06;;;;;;;16.50;5.03;;;9.70;76.20;;;;;;5005218;28;20526;-92
2021/12/07 06:28:32;;;;;;;6.82;2.63;;;9.30;76.00;;;;;;4997331;28;20038;-91
2021/12/07 06:30:58;;;;;;;5.35;2.40;;;9.20;76.00;;;;;;5013792;28;20514;-92
2021/12/07 06:33:26;;;;;;;6.63;2.88;;;9.20;76.00;;;;;;4992452;28;20358;-92
2021/12/07 06:35:57;;;;;;;8.68;3.30;;;9.20;76.00;;;;;;4977301;28;20026;-92
2021/12/07 06:38:30;;;;;;;5.95;2.03;;;9.20;76.10;;;;;;4974174;28;20033;-92
2021/12/07 06:40:56;;;;;;;4.75;2.20;;;9.60;76.30;;;;;;4975421;28;20736;-91
2021/12/07 06:43:22;;;;;;;5.55;2.90;;;9.20;76.20;;;;;;4988663;28;20025;-89
2021/12/07 06:45:49;;;;;;;4.45;2.13;;;9.20;76.30;;;;;;4976584;28;20053;-92
2021/12/07 06:48:14;;;;;;;6.07;2.30;;;9.30;76.30;;;;;;4978134;28;20061;-92
2021/12/07 06:50:40;;;;;;;7.70;2.83;;;9.30;76.40;;;;;;4984083;28;20057;-92
2021/12/07 06:53:06;;;;;;;7.75;3.17;;;9.40;76.50;;;;;;4986803;28;20728;-88
2021/12/07 06:55:32;;;;;;;4.97;1.83;;;9.20;76.40;;;;;;4977100;28;20046;-92
2021/12/07 06:57:58;;;;;;;4.53;2.05;;;9.20;76.40;;;;;;4991171;28;20056;-93
2021/12/07 07:00:25;;;;;;;6.80;1.95;;;9.40;76.50;;;;;;4975010;28;20033;-91
2021/12/07 07:02:51;;;;;;;8.32;2.65;;;9.20;76.40;;;;;;4983690;28;20037;-90
2021/12/07 07:05:18;;;;;;;8.18;2.45;;;9.20;76.50;;;;;;4983803;28;20038;-94
2021/12/07 07:07:44;;;;;;;2.42;1.48;;;9.40;76.60;;;;;;4997510;28;20030;-91
2021/12/07 07:10:14;;;;;;;3.08;1.73;;;9.20;76.50;;;;;;4989272;28;20041;-92
2021/12/07 07:12:41;;;;;;;8.00;2.38;;;9.20;76.50;;;;;;4998035;28;20026;-92
2021/12/07 07:15:08;;;;;;;9.25;3.90;;;9.30;76.60;;;;;;4990477;28;20040;-92
2021/12/07 07:17:34;;;;;;;8.32;2.78;;;9.20;76.60;;;;;;4986144;28;20042;-92
2021/12/07 07:20:02;;;;;;;18.17;4.75;;;9.20;76.70;;;;;;4988973;28;20056;-92
2021/12/07 07:22:27;;;;;;;5.43;2.30;;;9.10;76.50;;;;;;4968321;28;20042;-89
2021/12/07 07:24:53;;;;;;;5.80;2.33;;;9.10;76.60;;;;;;4986179;28;20092;-90
2021/12/07 07:27:19;;;;;;;5.93;2.00;;;9.20;76.60;;;;;;4969079;28;20129;-93
2021/12/07 07:29:46;;;;;;;5.43;2.45;;;9.10;76.60;;;;;;4973838;28;20057;-91
2021/12/07 07:32:12;;;;;;;4.15;2.50;;;9.10;76.60;;;;;;4973905;28;20102;-92
2021/12/07 07:34:38;;;;;;;3.35;1.77;;;9.40;76.80;;;;;;4969794;28;20185;-92
2021/12/07 07:37:05;;;;;;;5.72;1.35;;;9.40;76.80;;;;;;4973582;28;20040;-91
2021/12/07 07:39:30;;;;;;;4.00;1.60;;;9.10;76.60;;;;;;4981262;28;20030;-91
2021/12/07 07:41:56;;;;;;;6.45;2.20;;;9.10;76.70;;;;;;4971474;28;20029;-92
2021/12/07 07:44:22;;;;;;;3.40;1.58;;;9.10;76.70;;;;;;4991773;28;20045;-91
2021/12/07 07:46:50;;;;;;;3.53;1.25;;;9.10;76.60;;;;;;4973268;28;20030;-90
2021/12/07 07:49:16;;;;;;;2.13;1.13;;;9.10;76.80;;;;;;4989581;28;20029;-93
2021/12/07 07:51:42;;;;;;;2.95;1.50;;;9.10;76.90;;;;;;4980996;28;20035;-93
2021/12/07 07:54:09;;;;;;;5.03;1.42;;;9.10;76.80;;;;;;4981361;28;20040;-92
2021/12/07 07:56:36;;;;;;;4.97;1.60;;;9.30;77.50;;;;;;4968835;28;20033;-92
2021/12/07 07:59:02;;;;;;;5.43;1.55;;;9.00;76.70;;;;;;4965776;28;20025;-89
2021/12/07 08:01:30;;;;;;;2.95;1.27;;;9.50;77.10;;;;;;4971748;28;20053;-90
2021/12/07 08:03:58;;;;;;;4.03;2.03;;;9.00;76.80;;;;;;4985593;28;20047;-92
2021/12/07 08:06:24;;;;;;;4.03;1.52;;;9.00;76.70;;;;;;4971469;28;20033;-92
2021/12/07 08:08:50;;;;;;;4.07;1.67;;;9.20;76.80;;;;;;4972007;28;20030;-92
2021/12/07 08:11:16;;;;;;;2.38;1.30;;;9.30;76.80;;;;;;4982881;28;20029;-93
2021/12/07 08:13:42;;;;;;;9.95;4.35;;;9.10;76.60;;;;;;4969832;28;20026;-92
2021/12/07 08:16:15;;;;;;;4.15;1.67;;;9.00;76.60;;;;;;4983121;28;20765;-91
2021/12/07 08:18:43;;;;;;;7.07;1.92;;;9.50;76.60;;;;;;4977886;28;20029;-89
2021/12/07 08:21:09;;;;;;;5.00;1.52;;;8.90;76.20;;;;;;4981545;28;20532;-89
2021/12/07 08:23:35;;;;;;;1.65;0.90;;;8.90;76.30;;;;;;4974049;28;20026;-87
2021/12/07 08:26:02;;;;;;;5.20;1.80;;;9.00;76.30;;;;;;5004139;28;20072;-88
2021/12/07 08:28:28;;;;;;;4.18;1.45;;;9.10;76.40;;;;;;5000873;28;20022;-89
2021/12/07 08:30:53;;;;;;;4.15;1.65;;;8.70;76.30;;;;;;4994633;28;20481;-90
2021/12/07 08:33:19;;;;;;;5.45;1.73;;;9.00;76.50;;;;;;4990780;28;20044;-87
2021/12/07 08:35:45;;;;;;;7.07;1.98;;;8.60;76.30;;;;;;4994714;28;20049;-89
2021/12/07 08:38:11;;;;;;;4.85;1.23;;;8.60;76.30;;;;;;4975293;28;20026;-90
2021/12/07 08:40:39;;;;;;;5.03;1.88;;;8.90;76.50;;;;;;4989318;28;20180;-88
2021/12/07 08:43:09;;;;;;;3.13;1.38;;;8.70;76.40;;;;;;4991086;28;20040;-87
2021/12/07 08:45:35;;;;;;;3.22;1.33;;;8.60;76.30;;;;;;4996116;28;20052;-87
2021/12/07 08:48:03;;;;;;;1.63;0.80;;;8.70;76.50;;;;;;4970544;28;20475;-92
2021/12/07 08:50:30;;;;;;;5.15;1.48;;;8.40;76.40;;;;;;4987836;28;20120;-92
2021/12/07 08:53:02;;;;;;;3.75;1.65;;;8.90;77.30;;;;;;4978738;28;20064;-92
2021/12/07 09:01:05;;;;;;;3.45;1.48;;;8.80;77.00;;;;;;4978026;28;20048;-93
2021/12/07 09:03:31;;;;;;;3.38;1.48;;;8.40;76.70;;;;;;4988252;28;20384;-91
2021/12/07 09:05:57;;;;;;;3.20;1.35;;;8.40;76.70;;;;;;4988608;28;20622;-91
2021/12/07 09:08:23;;;;;;;3.08;1.50;;;8.30;76.80;;;;;;5003864;28;20037;-87
2021/12/07 09:10:51;;;;;;;2.58;1.30;;;8.30;76.80;;;;;;4998935;28;20041;-90
2021/12/07 09:13:16;;;;;;;3.90;1.40;;;8.60;77.00;;;;;;4978414;28;20030;-89
2021/12/07 09:15:43;;;;;;;6.15;2.03;;;8.30;77.00;;;;;;4987055;28;20083;-89
2021/12/07 09:18:09;;;;;;;3.28;1.73;;;8.80;77.40;;;;;;4998723;28;20026;-87
2021/12/07 09:20:35;;;;;;;7.78;2.72;;;8.90;77.60;;;;;;4987668;28;20050;-90
2021/12/07 09:23:01;;;;;;;8.57;2.20;;;8.30;77.30;;;;;;4968609;28;20038;-90
2021/12/07 09:25:27;;;;;;;4.45;2.70;;;8.30;77.40;;;;;;5012590;28;20042;-87
2021/12/07 09:27:53;;;;;;;6.68;2.15;;;8.40;77.60;;;;;;4986872;28;20060;-90
2021/12/07 09:30:20;;;;;;;6.18;2.20;;;8.30;77.50;;;;;;4989518;28;20043;-89
2021/12/07 09:32:46;;;;;;;4.38;2.22;;;8.30;77.50;;;;;;4988222;28;20030;-90
2021/12/07 09:35:13;;;;;;;8.48;2.88;;;8.30;77.60;;;;;;4995510;28;20058;-90
2021/12/07 09:37:39;;;;;;;7.72;2.92;;;8.70;77.80;;;;;;4981108;28;20030;-88
2021/12/07 09:40:14;;;;;;;5.00;2.13;;;8.60;77.90;;;;;;4977711;28;20407;-90
2021/12/07 09:42:40;;;;;;;4.60;2.57;;;8.50;77.80;;;;;;4992339;28;20112;-88
2021/12/07 09:45:10;;;;;;;5.82;2.33;;;8.40;77.80;;;;;;4974281;28;20132;-91
2021/12/07 09:47:36;;;;;;;4.68;1.73;;;8.40;78.40;;;;;;4974784;28;20523;-90
2021/12/07 09:50:05;;;;;;;3.88;2.20;;;8.40;77.90;;;;;;5007109;28;20041;-88
2021/12/07 09:52:32;;;;;;;6.40;2.63;;;8.40;77.90;;;;;;4990592;28;20034;-89
2021/12/07 09:54:58;;;;;;;5.82;2.10;;;8.80;78.20;;;;;;4972184;28;20033;-89
2021/12/07 09:57:24;;;;;;;2.25;1.05;;;8.40;78.20;;;;;;4994470;28;20030;-89
2021/12/07 09:59:50;;;;;;;7.03;2.33;;;9.00;78.60;;;;;;4970018;28;20092;-90
2021/12/07 10:02:16;;;;;;;7.53;2.63;;;8.70;78.40;;;;;;4987273;28;20053;-90
2021/12/07 10:04:42;;;;;;;9.55;2.80;;;9.00;78.70;;;;;;4978544;28;20419;-88
2021/12/07 10:07:08;;;;;;;7.95;3.25;;;8.20;78.50;;;;;;4999884;28;20052;-89
2021/12/07 10:09:36;;;;;;;8.52;2.50;;;8.50;78.70;;;;;;4971349;28;20125;-90
2021/12/07 10:12:04;;;;;;;14.27;4.65;;;8.50;78.80;;;;;;4993631;28;20131;-89
2021/12/07 10:14:40;;;;;;;10.32;4.22;;;8.50;79.00;;;;;;5004580;28;20036;-90
2021/12/07 10:17:06;;;;;;;14.30;4.20;;;8.50;79.10;;;;;;4992315;28;20026;-90
2021/12/07 10:19:41;;;;;;;9.55;3.55;;;8.50;79.30;;;;;;4988368;28;20109;-90
2021/12/07 10:22:19;;;;;;;7.22;2.70;;;8.60;80.00;;;;;;4988887;28;20116;-91
2021/12/07 10:24:55;;;;;;;11.68;3.80;;;8.50;79.50;;;;;;4972429;28;20042;-91
2021/12/07 10:27:43;;;;;;;13.48;5.70;;;8.60;79.50;;;;;;4984103;28;20373;-90
2021/12/07 10:30:20;;;;;;;12.60;3.70;;;8.60;79.70;;;;;;4985869;28;20034;-89
2021/12/07 10:33:01;;;;;;;13.70;4.15;;;9.00;80.00;;;;;;4966952;28;20092;-91
2021/12/07 10:35:36;;;;;;;12.15;4.32;;;8.70;79.90;;;;;;5003801;28;20072;-89
2021/12/07 10:38:09;;;;;;;7.27;3.07;;;8.70;80.50;;;;;;4988313;28;20487;-91
2021/12/07 10:40:36;;;;;;;8.25;2.03;;;8.70;80.10;;;;;;5009043;28;20284;-91
2021/12/07 10:43:02;;;;;;;11.20;3.40;;;8.70;80.20;;;;;;4980070;28;20116;-91
2021/12/07 10:45:28;;;;;;;16.52;3.95;;;8.70;80.40;;;;;;4998560;28;20070;-90
2021/12/07 10:47:54;;;;;;;10.80;3.85;;;8.70;80.50;;;;;;4975081;28;20088;-90
2021/12/07 10:50:20;;;;;;;10.20;3.33;;;8.90;80.80;;;;;;4974598;28;20052;-90
2021/12/07 10:52:46;;;;;;;7.32;2.95;;;8.70;80.80;;;;;;4996200;28;20034;-91
2021/12/07 10:55:22;;;;;;;10.68;2.60;;;8.70;80.90;;;;;;4976843;28;20030;-91
2021/12/07 10:57:52;;;;;;;5.43;2.58;;;8.80;81.00;;;;;;4975448;28;20537;-91
2021/12/07 11:00:25;;;;;;;13.25;4.63;;;9.10;81.10;;;;;;5011415;28;20133;-91
2021/12/07 11:02:58;;;;;;;5.78;2.33;;;9.10;81.30;;;;;;5004129;28;20487;-89
2021/12/07 11:05:53;;;;;;;10.90;3.50;;;8.80;81.40;;;;;;4989972;28;20069;-88
2021/12/07 11:08:23;;;;;;;11.25;3.85;;;8.80;81.40;;;;;;4959356;28;20659;-91
2021/12/07 11:10:51;;;;;;;14.75;3.85;;;9.10;81.60;;;;;;4988964;28;20087;-90
2021/12/07 11:13:35;;;;;;;14.68;5.65;;;9.00;81.70;;;;;;4987641;28;20088;-93
2021/12/07 11:16:11;;;;;;;10.97;2.80;;;8.80;81.60;;;;;;4980595;28;20041;-90
2021/12/07 11:18:41;;;;;;;7.68;3.17;;;8.80;81.70;;;;;;5003669;28;20370;-91
2021/12/07 11:21:16;;;;;;;12.38;3.55;;;9.00;82.00;;;;;;4984418;28;20042;-91
2021/12/07 11:23:56;;;;;;;;;;;8.80;81.90;;;;;;4988509;28;20032;-90
2021/12/07 11:31:50;;;;;;;9.15;2.28;;;8.80;82.20;;;;;;4968903;28;20117;-91
2021/12/07 11:34:17;;;;;;;18.65;4.22;;;8.90;82.30;;;;;;5001694;28;20030;-91
2021/12/07 11:36:45;;;;;;;11.35;3.95;;;8.90;82.50;;;;;;5005935;28;20160;-89
2021/12/07 11:39:33;;;;;;;10.25;2.72;;;9.00;82.70;;;;;;4992101;28;20059;-90
2021/12/07 11:42:03;;;;;;;12.40;3.50;;;9.30;83.30;;;;;;4992312;28;20403;-90
2021/12/07 11:44:32;;;;;;;22.42;5.57;;;8.90;83.00;;;;;;5001086;28;20026;-90
2021/12/07 11:47:01;;;;;;;14.82;3.28;;;8.90;83.00;;;;;;5011882;28;20029;-90
2021/12/07 11:49:31;;;;;;;18.73;3.33;;;8.90;83.30;;;;;;4975668;28;20029;-89
2021/12/07 11:52:01;;;;;;;19.52;3.60;;;8.90;83.40;;;;;;4971028;28;20677;-89
2021/12/07 11:54:39;;;;;;;15.20;3.97;;;8.90;83.50;;;;;;4987849;28;20543;-90
2021/12/07 11:57:07;;;;;;;12.88;2.65;;;9.30;83.70;;;;;;4970173;28;20033;-89
2021/12/07 11:59:33;;;;;;;13.95;2.70;;;9.00;83.60;;;;;;4966685;28;20050;-89
2021/12/07 12:02:00;;;;;;;6.32;2.15;;;9.00;83.60;;;;;;4980757;28;20029;-89
2021/12/07 12:04:26;;;;;;;12.00;3.70;;;9.10;83.60;;;;;;4989258;28;20426;-89
2021/12/07 12:06:57;;;;;;;10.30;3.28;;;9.10;83.70;;;;;;4987039;28;20026;-88
2021/12/07 12:09:24;;;;;;;13.10;2.53;;;9.10;83.70;;;;;;4993213;28;20483;-87
2021/12/07 12:12:24;;;;;;;14.40;4.45;;;9.10;84.00;;;;;;4986894;28;20035;-88
2021/12/07 12:15:24;;;;;;;16.85;4.30;;;9.10;83.90;;;;;;5004505;28;20037;-87
2021/12/07 12:18:19;;;;;;;15.43;3.75;;;9.10;83.90;;;;;;4995499;28;20026;-88
2021/12/07 12:20:59;;;;;;;12.35;4.68;;;9.10;84.40;;;;;;5001657;28;20049;-90
2021/12/07 12:23:51;;;;;;;10.13;2.33;;;9.10;84.10;;;;;;4986880;28;20029;-89
2021/12/07 12:26:26;;;;;;;9.38;1.98;;;9.20;84.30;;;;;;5007023;28;20042;-90
2021/12/07 12:28:53;;;;;;;;;;;9.20;84.40;;;;;;4972467;28;20026;-87
2021/12/07 12:31:44;;;;;;;15.27;2.58;;;8.90;84.30;;;;;;4970389;28;19912;-87
2021/12/07 12:34:21;;;;;;;7.55;1.98;;;9.20;84.50;;;;;;4990293;28;20100;-89
2021/12/07 12:36:59;;;;;;;12.73;3.28;;;9.20;84.40;;;;;;4991147;28;20088;-91
2021/12/07 12:40:21;;;;;;;16.50;3.20;;;9.20;84.40;;;;;;5001132;28;20041;-89
2021/12/07 12:42:51;;;;;;;5.70;1.65;;;9.20;84.50;;;;;;4987663;28;20166;-90
2021/12/07 12:45:28;;;;;;;14.90;2.97;;;9.20;84.60;;;;;;4982454;28;20041;-90
2021/12/07 12:48:00;;;;;;;6.47;1.45;;;9.20;84.60;;;;;;4999848;28;20049;-88
2021/12/07 12:50:54;;;;;;;12.75;2.83;;;9.30;84.70;;;;;;4996916;28;20122;-88
2021/12/07 12:53:31;;;;;;;7.85;1.80;;;9.30;84.70;;;;;;4984616;28;20040;-90
2021/12/07 12:56:08;;;;;;;12.40;2.33;;;9.30;84.70;;;;;;4969998;28;20041;-88
2021/12/07 12:58:36;;;;;;;6.90;1.77;;;9.40;84.70;;;;;;4972145;28;20042;-90
2021/12/07 13:01:28;;;;;;;18.85;2.90;;;9.30;84.80;;;;;;5015319;28;20034;-90
2021/12/07 13:04:17;;;;;;;12.93;2.63;;;9.40;84.90;;;;;;4993588;28;20325;-87
2021/12/07 13:06:48;;;;;;;8.52;2.45;;;9.40;84.80;;;;;;4992463;28;20038;-90
2021/12/07 13:09:20;;;;;;;15.73;2.90;;;9.40;84.90;;;;;;5012190;28;20455;-90
2021/12/07 13:12:05;;;;;;;7.35;1.85;;;9.40;84.90;;;;;;5008859;28;20049;-90
2021/12/07 13:14:38;;;;;;;7.40;2.10;;;9.50;85.00;;;;;;5009505;28;20037;-89
2021/12/07 13:17:22;;;;;;;14.85;2.47;;;9.50;85.00;;;;;;5028284;28;20038;-90
2021/12/07 13:20:11;;;;;;;14.48;4.40;;;9.50;84.80;;;;;;5013822;28;20057;-89
2021/12/07 13:23:11;;;;;;;6.72;1.98;;;9.50;85.20;;;;;;5008244;28;20029;-88
2021/12/07 13:25:50;;;;;;;9.20;2.85;;;9.50;84.90;;;;;;4982441;28;20053;-89
2021/12/07 13:28:25;;;;;;;7.07;1.30;;;9.50;84.90;;;;;;5004869;28;20033;-90
2021/12/07 13:31:09;;;;;;;16.33;3.33;;;9.60;85.00;;;;;;4997345;28;20038;-90
2021/12/07 13:33:51;;;;;;;5.45;2.45;;;9.60;85.10;;;;;;5009164;28;20034;-88
2021/12/07 13:36:55;;;;;;;8.57;2.22;;;9.60;85.00;;;;;;4973523;28;20053;-88
2021/12/07 13:39:21;;;;;;;9.65;1.83;;;9.60;85.00;;;;;;4966006;28;20034;-89
2021/12/07 13:42:00;;;;;;;5.68;1.67;;;9.60;85.00;;;;;;5004291;28;20042;-91
2021/12/07 13:44:28;;;;;;;5.53;1.50;;;9.60;85.00;;;;;;5015017;28;20061;-89
2021/12/07 13:46:58;;;;;;;12.27;2.03;;;9.60;84.90;;;;;;4993477;28;20042;-90
2021/12/07 13:49:24;;;;;;;7.40;2.10;;;9.60;84.90;;;;;;4970214;28;20053;-90
2021/12/07 13:51:52;;;;;;;9.27;1.92;;;9.70;85.00;;;;;;4988426;28;20042;-89
2021/12/07 13:54:20;;;;;;;8.02;2.05;;;9.70;85.00;;;;;;5008973;28;20041;-90
2021/12/07 13:56:50;;;;;;;11.70;2.83;;;10.10;85.30;;;;;;4975529;28;20050;-90
2021/12/07 13:59:21;;;;;;;7.80;2.17;;;10.10;85.30;;;;;;5007726;28;20026;-90
2021/12/07 14:01:55;;;;;;;11.10;1.88;;;9.70;85.00;;;;;;4974395;28;20427;-90
2021/12/07 14:04:26;;;;;;;5.25;0.98;;;9.70;85.00;;;;;;4985473;28;20049;-90
2021/12/07 14:06:53;;;;;;;5.50;1.92;;;9.70;85.10;;;;;;4991803;28;20041;-92
2021/12/07 14:09:19;;;;;;;9.43;2.30;;;9.70;85.00;;;;;;4995649;28;20026;-89
2021/12/07 14:11:57;;;;;;;7.70;2.00;;;9.70;85.00;;;;;;4977427;28;20030;-90
2021/12/07 14:14:24;;;;;;;13.25;2.67;;;9.70;84.70;;;;;;4994366;28;20255;-91
2021/12/07 14:16:56;;;;;;;11.10;2.75;;;9.80;84.60;;;;;;4993403;28;20052;-89
2021/12/07 14:19:23;;;;;;;5.35;1.75;;;9.80;84.50;;;;;;4970297;28;20084;-90
2021/12/07 14:21:51;;;;;;;11.20;1.92;;;9.80;84.40;;;;;;4968920;28;20038;-90
2021/12/07 14:24:19;;;;;;;9.38;2.70;;;10.00;84.50;;;;;;4984338;28;20053;-92
2021/12/07 14:26:46;;;;;;;13.68;2.22;;;9.80;84.40;;;;;;4969151;28;20026;-91
2021/12/07 14:29:23;;;;;;;8.38;1.55;;;10.00;84.60;;;;;;4992975;28;20510;-91
2021/12/07 14:31:56;;;;;;;2.75;1.17;;;10.10;85.20;;;;;;4990052;28;20027;-92
2021/12/07 14:34:30;;;;;;;13.00;2.10;;;9.80;84.40;;;;;;4997585;28;20127;-88
2021/12/07 14:37:07;;;;;;;10.80;2.63;;;9.70;84.20;;;;;;4992481;28;20059;-92
2021/12/07 14:39:36;;;;;;;13.48;2.15;;;9.80;84.20;;;;;;4971775;28;20052;-90
2021/12/07 14:42:03;;;;;;;4.55;1.73;;;9.80;84.20;;;;;;4965321;28;20030;-91
2021/12/07 14:44:33;;;;;;;9.98;2.05;;;9.80;84.10;;;;;;5017821;28;20033;-91
2021/12/07 14:47:04;;;;;;;8.40;2.03;;;9.80;83.80;;;;;;5010442;28;20178;-92
2021/12/07 14:49:32;;;;;;;13.02;2.97;;;10.00;84.00;;;;;;4978926;28;20028;-92
2021/12/07 14:51:58;;;;;;;7.60;1.92;;;9.80;83.70;;;;;;5010818;28;20030;-91